sensor_id;sensor_type;location;lat;lon;timestamp;pressure;altitude;pressure_sealevel;temperature;humidity
27643;BME280;15053;48.618;10.024;2023-04-26T00:02:14;94188.88;;;6.42;89.90
27643;BME280;15053;48.618;10.024;2023-04-26T00:04:41;94189.13;;;6.41;89.32
27643;BME280;15053;48.618;10.024;2023-04-26T00:07:07;94189.91;;;6.41;89.68
27643;BME280;15053;48.618;10.024;2023-04-26T00:09:34;94188.88;;;6.42;89.16
27643;BME280;15053;48.618;10.024;2023-04-26T00:12:00;94186.81;;;6.44;89.32
27643;BME280;15053;48.618;10.024;2023-04-26T00:14:27;94185.78;;;6.45;90.12
27643;BME280;15053;48.618;10.024;2023-04-26T00:16:53;94190.97;;;6.45;89.61
27643;BME280;15053;48.618;10.024;2023-04-26T00:19:19;94188.63;;;6.44;88.74
27643;BME280;15053;48.618;10.024;2023-04-26T00:21:46;94189.41;;;6.44;89.25
27643;BME280;15053;48.618;10.024;2023-04-26T00:24:13;94190.97;;;6.45;89.17
27643;BME280;15053;48.618;10.024;2023-04-26T00:26:39;94190.19;;;6.45;88.96
27643;BME280;15053;48.618;10.024;2023-04-26T00:29:05;94186.31;;;6.42;88.05
27643;BME280;15053;48.618;10.024;2023-04-26T00:31:32;94192.75;;;6.45;88.92
27643;BME280;15053;48.618;10.024;2023-04-26T00:33:59;94189.41;;;6.44;88.17
27643;BME280;15053;48.618;10.024;2023-04-26T00:36:25;94180.84;;;6.44;88.38
27643;BME280;15053;48.618;10.024;2023-04-26T00:38:52;94166.16;;;6.34;88.45
27643;BME280;15053;48.618;10.024;2023-04-26T00:41:19;94187.84;;;6.43;88.40
27643;BME280;15053;48.618;10.024;2023-04-26T00:43:47;94187.06;;;6.43;88.05
27643;BME280;15053;48.618;10.024;2023-04-26T00:46:13;94193.53;;;6.40;88.08
27643;BME280;15053;48.618;10.024;2023-04-26T00:48:40;94190.72;;;6.37;86.96
27643;BME280;15053;48.618;10.024;2023-04-26T00:51:07;94185.00;;;6.35;87.48
27643;BME280;15053;48.618;10.024;2023-04-26T00:53:34;94178.31;;;6.34;87.95
27643;BME280;15053;48.618;10.024;2023-04-26T00:56:01;94188.88;;;6.32;88.41
27643;BME280;15053;48.618;10.024;2023-04-26T00:58:28;94187.59;;;6.30;88.00
27643;BME280;15053;48.618;10.024;2023-04-26T01:00:55;94192.00;;;6.29;87.27
27643;BME280;15053;48.618;10.024;2023-04-26T01:03:22;94189.16;;;6.21;88.01
27643;BME280;15053;48.618;10.024;2023-04-26T01:05:49;94191.00;;;6.20;87.75
27643;BME280;15053;48.618;10.024;2023-04-26T01:08:15;94200.28;;;6.16;87.06
27643;BME280;15053;48.618;10.024;2023-04-26T01:10:48;94208.06;;;6.11;87.37
27643;BME280;15053;48.618;10.024;2023-04-26T01:13:15;94208.84;;;6.07;86.65
27643;BME280;15053;48.618;10.024;2023-04-26T01:15:44;94202.13;;;5.96;86.96
27643;BME280;15053;48.618;10.024;2023-04-26T01:18:11;94208.84;;;5.91;87.40
27643;BME280;15053;48.618;10.024;2023-04-26T01:20:39;94200.00;;;5.77;86.31
27643;BME280;15053;48.618;10.024;2023-04-26T01:23:07;94204.16;;;5.78;86.00
27643;BME280;15053;48.618;10.024;2023-04-26T01:25:34;94212.41;;;5.75;85.88
27643;BME280;15053;48.618;10.024;2023-04-26T01:28:00;94200.00;;;5.67;86.72
27643;BME280;15053;48.618;10.024;2023-04-26T01:30:27;94206.47;;;5.60;85.97
27643;BME280;15053;48.618;10.024;2023-04-26T01:32:53;94203.88;;;5.55;85.47
27643;BME280;15053;48.618;10.024;2023-04-26T01:35:20;94204.13;;;5.53;85.79
27643;BME280;15053;48.618;10.024;2023-04-26T01:37:47;94200.75;;;5.53;86.09
27643;BME280;15053;48.618;10.024;2023-04-26T01:40:13;94210.06;;;5.54;86.75
27643;BME280;15053;48.618;10.024;2023-04-26T01:42:40;94207.47;;;5.54;86.70
27643;BME280;15053;48.618;10.024;2023-04-26T01:45:06;94206.72;;;5.53;87.36
27643;BME280;15053;48.618;10.024;2023-04-26T01:47:51;94216.00;;;5.54;86.91
27643;BME280;15053;48.618;10.024;2023-04-26T01:50:18;94203.09;;;5.54;86.95
27643;BME280;15053;48.618;10.024;2023-04-26T01:52:44;94199.47;;;5.55;87.68
27643;BME280;15053;48.618;10.024;2023-04-26T01:55:11;94197.66;;;5.56;86.81
27643;BME280;15053;48.618;10.024;2023-04-26T01:57:37;94202.59;;;5.57;86.88
27643;BME280;15053;48.618;10.024;2023-04-26T02:00:05;94197.94;;;5.59;88.05
27643;BME280;15053;48.618;10.024;2023-04-26T02:02:38;94205.94;;;5.58;87.32
27643;BME280;15053;48.618;10.024;2023-04-26T02:05:08;94203.34;;;5.58;87.85
27643;BME280;15053;48.618;10.024;2023-04-26T02:07:34;94207.50;;;5.59;87.83
27643;BME280;15053;48.618;10.024;2023-04-26T02:10:01;94200.00;;;5.57;87.86
27643;BME280;15053;48.618;10.024;2023-04-26T02:12:28;94199.75;;;5.54;87.77
27643;BME280;15053;48.618;10.024;2023-04-26T02:14:55;94194.81;;;5.52;86.74
27643;BME280;15053;48.618;10.024;2023-04-26T02:17:21;94201.25;;;5.50;87.31
27643;BME280;15053;48.618;10.024;2023-04-26T02:19:48;94202.06;;;5.50;87.39
27643;BME280;15053;48.618;10.024;2023-04-26T02:22:15;94198.44;;;5.46;87.17
27643;BME280;15053;48.618;10.024;2023-04-26T02:24:42;94204.91;;;5.44;86.62
27643;BME280;15053;48.618;10.024;2023-04-26T02:27:09;94199.47;;;5.40;86.79
27643;BME280;15053;48.618;10.024;2023-04-26T02:29:36;94198.41;;;5.36;87.01
27643;BME280;15053;48.618;10.024;2023-04-26T02:32:13;94195.31;;;5.34;87.38
27643;BME280;15053;48.618;10.024;2023-04-26T02:34:40;94197.38;;;5.27;87.02
27643;BME280;15053;48.618;10.024;2023-04-26T02:37:07;94196.81;;;5.25;87.39
27643;BME280;15053;48.618;10.024;2023-04-26T02:39:34;94205.13;;;5.27;87.74
27643;BME280;15053;48.618;10.024;2023-04-26T02:42:01;94200.19;;;5.25;87.32
27643;BME280;15053;48.618;10.024;2023-04-26T02:44:28;94206.13;;;5.26;88.00
27643;BME280;15053;48.618;10.024;2023-04-26T02:46:56;94205.63;;;5.24;87.98
27643;BME280;15053;48.618;10.024;2023-04-26T02:49:23;94206.63;;;5.23;87.99
27643;BME280;15053;48.618;10.024;2023-04-26T02:51:50;94200.44;;;5.19;87.25
27643;BME280;15053;48.618;10.024;2023-04-26T02:54:17;94205.84;;;5.17;87.93
27643;BME280;15053;48.618;10.024;2023-04-26T02:56:43;94203.53;;;5.16;87.71
27643;BME280;15053;48.618;10.024;2023-04-26T02:59:10;94197.59;;;5.15;88.51
27643;BME280;15053;48.618;10.024;2023-04-26T03:01:36;94201.72;;;5.16;88.51
27643;BME280;15053;48.618;10.024;2023-04-26T03:04:03;94207.63;;;5.12;88.21
27643;BME280;15053;48.618;10.024;2023-04-26T03:06:32;94203.75;;;5.09;88.76
27643;BME280;15053;48.618;10.024;2023-04-26T03:08:59;94203.47;;;5.06;88.22
27643;BME280;15053;48.618;10.024;2023-04-26T03:11:26;94198.31;;;4.96;87.80
27643;BME280;15053;48.618;10.024;2023-04-26T03:13:53;94201.69;;;5.01;87.88
27643;BME280;15053;48.618;10.024;2023-04-26T03:16:19;94199.59;;;4.98;88.22
27643;BME280;15053;48.618;10.024;2023-04-26T03:18:47;94207.59;;;4.97;89.09
27643;BME280;15053;48.618;10.024;2023-04-26T03:21:13;94205.03;;;4.97;88.42
27643;BME280;15053;48.618;10.024;2023-04-26T03:23:40;94205.25;;;4.95;88.42
27643;BME280;15053;48.618;10.024;2023-04-26T03:26:08;94204.25;;;4.96;89.21
27643;BME280;15053;48.618;10.024;2023-04-26T03:28:34;94209.91;;;4.93;88.92
27643;BME280;15053;48.618;10.024;2023-04-26T03:31:01;94206.03;;;4.91;88.66
27643;BME280;15053;48.618;10.024;2023-04-26T03:33:30;94207.03;;;4.85;88.85
27643;BME280;15053;48.618;10.024;2023-04-26T03:35:57;94210.59;;;4.78;88.77
27643;BME280;15053;48.618;10.024;2023-04-26T03:38:23;94218.63;;;4.77;89.43
27643;BME280;15053;48.618;10.024;2023-04-26T03:40:50;94214.22;;;4.78;89.04
27643;BME280;15053;48.618;10.024;2023-04-26T03:43:17;94214.47;;;4.81;89.21
27643;BME280;15053;48.618;10.024;2023-04-26T03:45:46;94211.16;;;4.81;89.53
27643;BME280;15053;48.618;10.024;2023-04-26T03:48:14;94203.94;;;4.83;89.50
27643;BME280;15053;48.618;10.024;2023-04-26T03:50:44;94203.44;;;4.86;89.64
27643;BME280;15053;48.618;10.024;2023-04-26T03:53:11;94199.78;;;4.82;88.99
27643;BME280;15053;48.618;10.024;2023-04-26T03:55:38;94201.88;;;4.85;89.25
27643;BME280;15053;48.618;10.024;2023-04-26T03:58:04;94200.56;;;4.82;88.97
27643;BME280;15053;48.618;10.024;2023-04-26T04:00:35;94202.38;;;4.82;89.06
27643;BME280;15053;48.618;10.024;2023-04-26T04:03:02;94206.75;;;4.81;88.64
27643;BME280;15053;48.618;10.024;2023-04-26T04:05:30;94208.03;;;4.78;88.73
27643;BME280;15053;48.618;10.024;2023-04-26T04:07:57;94215.53;;;4.80;88.11
27643;BME280;15053;48.618;10.024;2023-04-26T04:10:24;94202.63;;;4.80;87.98
27643;BME280;15053;48.618;10.024;2023-04-26T04:12:51;94206.50;;;4.83;88.55
27643;BME280;15053;48.618;10.024;2023-04-26T04:15:19;94201.34;;;4.83;88.28
27643;BME280;15053;48.618;10.024;2023-04-26T04:17:47;94204.72;;;4.83;88.92
27643;BME280;15053;48.618;10.024;2023-04-26T04:20:13;94214.25;;;4.83;88.52
27643;BME280;15053;48.618;10.024;2023-04-26T04:22:41;94216.81;;;4.83;88.94
27643;BME280;15053;48.618;10.024;2023-04-26T04:25:08;94214.53;;;4.86;88.39
27643;BME280;15053;48.618;10.024;2023-04-26T04:27:39;94222.50;;;4.85;88.42
27643;BME280;15053;48.618;10.024;2023-04-26T04:30:08;94225.84;;;4.80;88.03
27643;BME280;15053;48.618;10.024;2023-04-26T04:32:35;94228.44;;;4.80;87.88
27643;BME280;15053;48.618;10.024;2023-04-26T04:35:02;94230.72;;;4.76;88.21
27643;BME280;15053;48.618;10.024;2023-04-26T04:37:29;94233.28;;;4.71;87.64
27643;BME280;15053;48.618;10.024;2023-04-26T04:39:58;94240.50;;;4.69;87.50
27643;BME280;15053;48.618;10.024;2023-04-26T04:42:25;94236.06;;;4.65;88.11
27643;BME280;15053;48.618;10.024;2023-04-26T04:44:56;94239.72;;;4.69;87.88
27643;BME280;15053;48.618;10.024;2023-04-26T04:47:26;94238.44;;;4.71;87.95
27643;BME280;15053;48.618;10.024;2023-04-26T04:49:52;94234.88;;;4.78;88.18
27643;BME280;15053;48.618;10.024;2023-04-26T04:52:19;94241.56;;;4.78;87.89
27643;BME280;15053;48.618;10.024;2023-04-26T04:54:49;94237.97;;;4.85;88.10
27643;BME280;15053;48.618;10.024;2023-04-26T04:57:15;94231.03;;;4.90;88.07
27643;BME280;15053;48.618;10.024;2023-04-26T04:59:43;94243.22;;;5.00;87.76
27643;BME280;15053;48.618;10.024;2023-04-26T05:02:10;94231.34;;;5.04;87.67
27643;BME280;15053;48.618;10.024;2023-04-26T05:04:37;94241.47;;;5.10;87.67
27643;BME280;15053;48.618;10.024;2023-04-26T05:07:04;94231.38;;;5.14;87.84
27643;BME280;15053;48.618;10.024;2023-04-26T05:09:32;94234.00;;;5.24;87.16
27643;BME280;15053;48.618;10.024;2023-04-26T05:11:59;94237.63;;;5.28;87.94
27643;BME280;15053;48.618;10.024;2023-04-26T05:14:26;94235.59;;;5.35;87.19
27643;BME280;15053;48.618;10.024;2023-04-26T05:16:52;94250.59;;;5.38;87.52
27643;BME280;15053;48.618;10.024;2023-04-26T05:19:21;94246.72;;;5.41;87.53
27643;BME280;15053;48.618;10.024;2023-04-26T05:21:47;94250.31;;;5.45;86.56
27643;BME280;15053;48.618;10.024;2023-04-26T05:24:13;94253.19;;;5.48;87.38
27643;BME280;15053;48.618;10.024;2023-04-26T05:26:41;94253.47;;;5.52;86.96
27643;BME280;15053;48.618;10.024;2023-04-26T05:29:29;94261.22;;;5.57;86.73
27643;BME280;15053;48.618;10.024;2023-04-26T05:31:56;94264.06;;;5.60;87.61
27643;BME280;15053;48.618;10.024;2023-04-26T05:34:46;94266.38;;;5.62;86.87
27643;BME280;15053;48.618;10.024;2023-04-26T05:37:15;94268.47;;;5.65;86.84
27643;BME280;15053;48.618;10.024;2023-04-26T05:39:42;94270.28;;;5.69;87.19
27643;BME280;15053;48.618;10.024;2023-04-26T05:42:09;94268.75;;;5.73;87.02
27643;BME280;15053;48.618;10.024;2023-04-26T05:44:37;94271.31;;;5.73;87.08
27643;BME280;15053;48.618;10.024;2023-04-26T05:47:03;94263.81;;;5.72;87.17
27643;BME280;15053;48.618;10.024;2023-04-26T05:49:30;94275.94;;;5.71;86.81
27643;BME280;15053;48.618;10.024;2023-04-26T05:51:58;94277.50;;;5.72;86.78
27643;BME280;15053;48.618;10.024;2023-04-26T05:54:24;94274.41;;;5.75;87.11
27643;BME280;15053;48.618;10.024;2023-04-26T05:56:51;94279.09;;;5.78;87.65
27643;BME280;15053;48.618;10.024;2023-04-26T05:59:17;94281.19;;;5.86;87.36
27643;BME280;15053;48.618;10.024;2023-04-26T06:01:44;94278.59;;;5.86;86.52
27643;BME280;15053;48.618;10.024;2023-04-26T06:04:11;94275.50;;;5.89;86.15
27643;BME280;15053;48.618;10.024;2023-04-26T06:06:47;94279.16;;;5.99;86.52
27643;BME280;15053;48.618;10.024;2023-04-26T06:09:13;94274.50;;;6.06;87.34
27643;BME280;15053;48.618;10.024;2023-04-26T06:11:40;94287.41;;;6.16;86.41
27643;BME280;15053;48.618;10.024;2023-04-26T06:14:06;94288.97;;;6.22;87.34
27643;BME280;15053;48.618;10.024;2023-04-26T06:16:55;94293.63;;;6.30;86.90
27643;BME280;15053;48.618;10.024;2023-04-26T06:19:22;94293.63;;;6.35;86.16
27643;BME280;15053;48.618;10.024;2023-04-26T06:21:49;94290.28;;;6.39;86.37
27643;BME280;15053;48.618;10.024;2023-04-26T06:24:17;94287.94;;;6.48;85.96
27643;BME280;15053;48.618;10.024;2023-04-26T06:26:44;94291.03;;;6.60;85.70
27643;BME280;15053;48.618;10.024;2023-04-26T06:29:10;94287.13;;;6.68;86.02
27643;BME280;15053;48.618;10.024;2023-04-26T06:31:37;94284.28;;;6.79;85.97
27643;BME280;15053;48.618;10.024;2023-04-26T06:34:03;94283.97;;;6.96;85.63
27643;BME280;15053;48.618;10.024;2023-04-26T06:36:30;94283.16;;;7.16;84.00
27643;BME280;15053;48.618;10.024;2023-04-26T06:38:58;94294.00;;;7.28;82.25
27643;BME280;15053;48.618;10.024;2023-04-26T06:41:24;94286.16;;;7.43;81.64
27643;BME280;15053;48.618;10.024;2023-04-26T06:43:51;94286.63;;;7.55;80.63
27643;BME280;15053;48.618;10.024;2023-04-26T06:46:19;94286.63;;;7.55;79.61
27643;BME280;15053;48.618;10.024;2023-04-26T06:48:55;94296.72;;;7.51;78.60
27643;BME280;15053;48.618;10.024;2023-04-26T06:51:23;94286.09;;;7.53;78.04
27643;BME280;15053;48.618;10.024;2023-04-26T06:53:50;94291.00;;;7.59;76.81
27643;BME280;15053;48.618;10.024;2023-04-26T06:56:18;94294.91;;;7.57;75.94
27643;BME280;15053;48.618;10.024;2023-04-26T06:59:05;94294.91;;;7.57;75.17
27643;BME280;15053;48.618;10.024;2023-04-26T07:01:33;94297.22;;;7.58;75.44
27643;BME280;15053;48.618;10.024;2023-04-26T07:04:03;94302.38;;;7.58;75.04
27643;BME280;15053;48.618;10.024;2023-04-26T07:06:33;94294.38;;;7.60;74.11
27643;BME280;15053;48.618;10.024;2023-04-26T07:09:00;94289.16;;;7.65;74.36
27643;BME280;15053;48.618;10.024;2023-04-26T07:11:28;94294.34;;;7.65;72.79
27643;BME280;15053;48.618;10.024;2023-04-26T07:13:54;94292.31;;;7.57;72.82
27643;BME280;15053;48.618;10.024;2023-04-26T07:16:21;94286.09;;;7.58;72.27
27643;BME280;15053;48.618;10.024;2023-04-26T07:18:48;94285.53;;;7.61;71.71
27643;BME280;15053;48.618;10.024;2023-04-26T07:21:14;94288.16;;;7.56;70.84
27643;BME280;15053;48.618;10.024;2023-04-26T07:23:41;94289.72;;;7.57;69.43
27643;BME280;15053;48.618;10.024;2023-04-26T07:26:10;94290.72;;;7.61;69.21
27643;BME280;15053;48.618;10.024;2023-04-26T07:28:36;94290.19;;;7.64;68.73
27643;BME280;15053;48.618;10.024;2023-04-26T07:31:03;94290.19;;;7.64;67.28
27643;BME280;15053;48.618;10.024;2023-04-26T07:33:33;94291.47;;;7.71;67.37
27643;BME280;15053;48.618;10.024;2023-04-26T07:36:00;94290.09;;;7.84;66.72
27643;BME280;15053;48.618;10.024;2023-04-26T07:38:26;94285.13;;;7.93;66.24
27643;BME280;15053;48.618;10.024;2023-04-26T07:40:54;94280.59;;;8.08;66.67
27643;BME280;15053;48.618;10.024;2023-04-26T07:43:21;94289.81;;;8.24;66.28
27643;BME280;15053;48.618;10.024;2023-04-26T07:45:47;94281.41;;;8.43;65.36
27643;BME280;15053;48.618;10.024;2023-04-26T07:48:14;94284.19;;;8.51;64.94
27643;BME280;15053;48.618;10.024;2023-04-26T07:50:41;94282.84;;;8.59;64.70
27643;BME280;15053;48.618;10.024;2023-04-26T07:53:07;94287.19;;;8.63;63.34
27643;BME280;15053;48.618;10.024;2023-04-26T07:55:34;94284.88;;;8.62;62.15
27643;BME280;15053;48.618;10.024;2023-04-26T07:58:00;94285.31;;;8.69;62.24
27643;BME280;15053;48.618;10.024;2023-04-26T08:00:26;94287.31;;;8.77;62.29
27643;BME280;15053;48.618;10.024;2023-04-26T08:02:53;94287.81;;;8.79;61.91
27643;BME280;15053;48.618;10.024;2023-04-26T08:05:20;94291.53;;;8.73;60.56
27643;BME280;15053;48.618;10.024;2023-04-26T08:07:47;94286.34;;;8.73;59.92
27643;BME280;15053;48.618;10.024;2023-04-26T08:10:13;94288.94;;;8.73;59.13
27643;BME280;15053;48.618;10.024;2023-04-26T08:12:40;94292.53;;;8.77;59.89
27643;BME280;15053;48.618;10.024;2023-04-26T08:15:07;94289.94;;;8.77;60.90
27643;BME280;15053;48.618;10.024;2023-04-26T08:17:34;94292.03;;;8.75;61.66
27643;BME280;15053;48.618;10.024;2023-04-26T08:20:00;94295.59;;;8.84;61.99
27643;BME280;15053;48.618;10.024;2023-04-26T08:22:27;94289.78;;;8.92;61.28
27643;BME280;15053;48.618;10.024;2023-04-26T08:24:54;94293.56;;;9.05;61.33
27643;BME280;15053;48.618;10.024;2023-04-26T08:27:21;94287.50;;;9.14;61.04
27643;BME280;15053;48.618;10.024;2023-04-26T08:29:48;94288.47;;;9.18;60.51
27643;BME280;15053;48.618;10.024;2023-04-26T08:32:14;94294.75;;;9.12;59.81
27643;BME280;15053;48.618;10.024;2023-04-26T08:34:40;94286.81;;;9.04;59.97
27643;BME280;15053;48.618;10.024;2023-04-26T08:37:07;94282.06;;;9.11;60.70
27643;BME280;15053;48.618;10.024;2023-04-26T08:39:34;94289.91;;;9.29;60.38
27643;BME280;15053;48.618;10.024;2023-04-26T08:42:14;94295.78;;;9.59;60.39
27643;BME280;15053;48.618;10.024;2023-04-26T08:44:42;94299.25;;;9.73;59.44
27643;BME280;15053;48.618;10.024;2023-04-26T08:47:16;94298.50;;;9.72;58.77
27643;BME280;15053;48.618;10.024;2023-04-26T08:49:45;94296.03;;;9.81;58.19
27643;BME280;15053;48.618;10.024;2023-04-26T08:52:18;94297.03;;;9.85;57.70
27643;BME280;15053;48.618;10.024;2023-04-26T08:54:49;94295.69;;;9.87;57.35
27643;BME280;15053;48.618;10.024;2023-04-26T08:57:19;94293.56;;;9.89;57.28
27643;BME280;15053;48.618;10.024;2023-04-26T08:59:46;94299.22;;;9.96;57.41
27643;BME280;15053;48.618;10.024;2023-04-26T09:02:17;94301.13;;;9.91;57.36
27643;BME280;15053;48.618;10.024;2023-04-26T09:04:45;94295.28;;;9.99;58.00
27643;BME280;15053;48.618;10.024;2023-04-26T09:07:35;94300.22;;;10.19;57.51
27643;BME280;15053;48.618;10.024;2023-04-26T09:10:05;94300.28;;;10.33;57.82
27643;BME280;15053;48.618;10.024;2023-04-26T09:12:32;94300.41;;;10.41;57.82
27643;BME280;15053;48.618;10.024;2023-04-26T09:14:58;94300.00;;;10.34;56.30
27643;BME280;15053;48.618;10.024;2023-04-26T09:17:31;94305.16;;;10.21;55.97
27643;BME280;15053;48.618;10.024;2023-04-26T09:19:59;94302.38;;;10.12;56.16
27643;BME280;15053;48.618;10.024;2023-04-26T09:24:58;94294.72;;;10.02;55.76
27643;BME280;15053;48.618;10.024;2023-04-26T09:27:36;94294.84;;;9.92;55.73
27643;BME280;15053;48.618;10.024;2023-04-26T09:33:00;94291.97;;;9.75;55.03
27643;BME280;15053;48.618;10.024;2023-04-26T09:38:04;94286.06;;;9.88;54.80
27643;BME280;15053;48.618;10.024;2023-04-26T09:40:48;94289.38;;;9.93;55.21
27643;BME280;15053;48.618;10.024;2023-04-26T09:43:16;94279.88;;;9.84;55.74
27643;BME280;15053;48.618;10.024;2023-04-26T09:45:54;94287.59;;;9.89;56.06
27643;BME280;15053;48.618;10.024;2023-04-26T09:48:27;94289.28;;;9.80;55.79
27643;BME280;15053;48.618;10.024;2023-04-26T09:50:58;94289.84;;;9.77;55.73
27643;BME280;15053;48.618;10.024;2023-04-26T09:53:31;94273.16;;;9.59;55.66
27643;BME280;15053;48.618;10.024;2023-04-26T09:56:13;94288.84;;;9.73;55.65
27643;BME280;15053;48.618;10.024;2023-04-26T10:01:18;94282.59;;;10.48;55.01
27643;BME280;15053;48.618;10.024;2023-04-26T10:03:45;94282.66;;;10.76;54.71
27643;BME280;15053;48.618;10.024;2023-04-26T10:06:13;94278.06;;;11.00;53.51
27643;BME280;15053;48.618;10.024;2023-04-26T10:08:39;94276.25;;;11.14;53.43
27643;BME280;15053;48.618;10.024;2023-04-26T10:11:06;94259.06;;;11.13;53.46
27643;BME280;15053;48.618;10.024;2023-04-26T10:13:35;94262.44;;;11.00;53.48
27643;BME280;15053;48.618;10.024;2023-04-26T10:16:02;94271.59;;;10.84;53.70
27643;BME280;15053;48.618;10.024;2023-04-26T10:18:30;94277.94;;;10.78;53.69
27643;BME280;15053;48.618;10.024;2023-04-26T10:21:14;94270.13;;;10.78;53.89
27643;BME280;15053;48.618;10.024;2023-04-26T10:23:43;94276.59;;;10.80;54.25
27643;BME280;15053;48.618;10.024;2023-04-26T10:29:14;94257.56;;;10.80;54.21
27643;BME280;15053;48.618;10.024;2023-04-26T10:34:28;94271.38;;;10.80;54.71
27643;BME280;15053;48.618;10.024;2023-04-26T10:37:06;94257.91;;;10.92;54.49
27643;BME280;15053;48.618;10.024;2023-04-26T10:39:33;94255.28;;;10.92;54.49
27643;BME280;15053;48.618;10.024;2023-04-26T10:42:24;94250.44;;;10.85;54.64
27643;BME280;15053;48.618;10.024;2023-04-26T10:44:54;94242.72;;;10.80;54.79
27643;BME280;15053;48.618;10.024;2023-04-26T10:47:32;94248.22;;;10.79;53.82
27643;BME280;15053;48.618;10.024;2023-04-26T10:52:31;94242.94;;;10.84;54.32
27643;BME280;15053;48.618;10.024;2023-04-26T10:54:59;94242.47;;;10.95;54.18
27643;BME280;15053;48.618;10.024;2023-04-26T10:57:48;94241.31;;;11.01;53.41
27643;BME280;15053;48.618;10.024;2023-04-26T11:00:25;94241.28;;;10.88;52.70
27643;BME280;15053;48.618;10.024;2023-04-26T11:02:58;94236.47;;;10.95;52.75
27643;BME280;15053;48.618;10.024;2023-04-26T11:05:32;94241.59;;;11.00;51.93
27643;BME280;15053;48.618;10.024;2023-04-26T11:10:32;94249.19;;;10.96;51.67
27643;BME280;15053;48.618;10.024;2023-04-26T11:13:02;94240.53;;;11.01;51.09
27643;BME280;15053;48.618;10.024;2023-04-26T11:15:32;94242.47;;;11.09;50.32
27643;BME280;15053;48.618;10.024;2023-04-26T11:18:05;94240.13;;;11.21;50.35
27643;BME280;15053;48.618;10.024;2023-04-26T11:20:32;94242.66;;;11.26;50.04
27643;BME280;15053;48.618;10.024;2023-04-26T11:22:59;94235.00;;;11.43;50.13
27643;BME280;15053;48.618;10.024;2023-04-26T11:25:27;94242.25;;;11.96;50.11
27643;BME280;15053;48.618;10.024;2023-04-26T11:27:58;94231.63;;;12.59;50.65
27643;BME280;15053;48.618;10.024;2023-04-26T11:30:27;94229.00;;;13.12;50.02
27643;BME280;15053;48.618;10.024;2023-04-26T11:32:54;94230.97;;;13.54;49.34
27643;BME280;15053;48.618;10.024;2023-04-26T11:35:22;94235.44;;;13.62;48.71
27643;BME280;15053;48.618;10.024;2023-04-26T11:37:50;94223.97;;;13.24;47.95
27643;BME280;15053;48.618;10.024;2023-04-26T11:40:17;94218.72;;;12.84;48.70
27643;BME280;15053;48.618;10.024;2023-04-26T11:42:44;94223.75;;;12.50;48.01
27643;BME280;15053;48.618;10.024;2023-04-26T11:45:10;94213.16;;;12.24;48.48
27643;BME280;15053;48.618;10.024;2023-04-26T11:47:38;94217.19;;;12.08;47.77
27643;BME280;15053;48.618;10.024;2023-04-26T11:50:06;94211.06;;;11.91;47.99
27643;BME280;15053;48.618;10.024;2023-04-26T11:52:34;94208.38;;;11.82;47.99
27643;BME280;15053;48.618;10.024;2023-04-26T11:55:03;94217.84;;;11.92;48.29
27643;BME280;15053;48.618;10.024;2023-04-26T11:57:30;94199.19;;;12.07;48.36
27643;BME280;15053;48.618;10.024;2023-04-26T12:00:11;94204.34;;;12.42;47.72
27643;BME280;15053;48.618;10.024;2023-04-26T12:02:43;94199.41;;;12.72;46.83
27643;BME280;15053;48.618;10.024;2023-04-26T12:05:10;94206.31;;;12.98;45.95
27643;BME280;15053;48.618;10.024;2023-04-26T12:07:36;94206.88;;;13.18;45.86
27643;BME280;15053;48.618;10.024;2023-04-26T12:10:13;94202.78;;;13.42;44.80
27643;BME280;15053;48.618;10.024;2023-04-26T12:12:50;94206.94;;;13.52;44.37
27643;BME280;15053;48.618;10.024;2023-04-26T12:15:18;94198.03;;;13.53;44.53
27643;BME280;15053;48.618;10.024;2023-04-26T12:18:12;94202.03;;;13.59;45.01
27643;BME280;15053;48.618;10.024;2023-04-26T12:20:41;94198.31;;;13.60;44.55
27643;BME280;15053;48.618;10.024;2023-04-26T12:23:09;94198.50;;;13.64;44.13
27643;BME280;15053;48.618;10.024;2023-04-26T12:25:39;94189.72;;;13.68;43.58
27643;BME280;15053;48.618;10.024;2023-04-26T12:28:08;94182.03;;;14.14;44.02
27643;BME280;15053;48.618;10.024;2023-04-26T12:30:38;94168.09;;;14.57;42.12
27643;BME280;15053;48.618;10.024;2023-04-26T12:33:05;94179.38;;;14.32;41.70
27643;BME280;15053;48.618;10.024;2023-04-26T12:35:42;94180.66;;;14.00;42.22
27643;BME280;15053;48.618;10.024;2023-04-26T12:38:09;94183.88;;;13.88;42.09
27643;BME280;15053;48.618;10.024;2023-04-26T12:40:38;94178.97;;;13.78;42.11
27643;BME280;15053;48.618;10.024;2023-04-26T12:43:04;94178.63;;;13.71;42.49
27643;BME280;15053;48.618;10.024;2023-04-26T12:45:31;94176.50;;;13.73;42.97
27643;BME280;15053;48.618;10.024;2023-04-26T12:47:57;94179.56;;;13.75;42.75
27643;BME280;15053;48.618;10.024;2023-04-26T12:50:24;94173.25;;;13.59;42.33
27643;BME280;15053;48.618;10.024;2023-04-26T12:52:51;94180.78;;;13.52;41.86
27643;BME280;15053;48.618;10.024;2023-04-26T12:55:18;94176.44;;;13.39;42.65
27643;BME280;15053;48.618;10.024;2023-04-26T12:57:45;94174.91;;;13.29;42.56
27643;BME280;15053;48.618;10.024;2023-04-26T13:00:14;94190.44;;;13.34;42.99
27643;BME280;15053;48.618;10.024;2023-04-26T13:02:43;94176.13;;;13.23;42.47
27643;BME280;15053;48.618;10.024;2023-04-26T13:05:10;94173.47;;;13.15;43.32
27643;BME280;15053;48.618;10.024;2023-04-26T13:07:38;94177.25;;;13.00;43.54
27643;BME280;15053;48.618;10.024;2023-04-26T13:10:06;94165.56;;;12.97;44.00
27643;BME280;15053;48.618;10.024;2023-04-26T13:12:36;94166.00;;;12.99;44.01
27643;BME280;15053;48.618;10.024;2023-04-26T13:15:06;94167.78;;;13.13;44.06
27643;BME280;15053;48.618;10.024;2023-04-26T13:17:35;94169.16;;;13.19;43.70
27643;BME280;15053;48.618;10.024;2023-04-26T13:20:04;94163.75;;;13.07;44.42
27643;BME280;15053;48.618;10.024;2023-04-26T13:22:31;94165.69;;;12.92;44.04
27643;BME280;15053;48.618;10.024;2023-04-26T13:24:58;94163.59;;;12.72;44.92
27643;BME280;15053;48.618;10.024;2023-04-26T13:27:25;94165.00;;;12.70;44.53